sensor_id;sensor_type;location;lat;lon;timestamp;P1;durP1;ratioP1;P2;durP2;ratioP2
13872;SDS011;7006;51.494;11.964;2023-04-05T00:00:29;14.63;;;9.00;;
13872;SDS011;7006;51.494;11.964;2023-04-05T00:02:57;12.17;;;9.23;;
13872;SDS011;7006;51.494;11.964;2023-04-05T00:05:27;13.10;;;9.60;;
13872;SDS011;7006;51.494;11.964;2023-04-05T00:07:58;13.27;;;8.60;;
13872;SDS011;7006;51.494;11.964;2023-04-05T00:10:27;11.63;;;8.20;;
13872;SDS011;7006;51.494;11.964;2023-04-05T00:12:57;10.97;;;9.00;;
13872;SDS011;7006;51.494;11.964;2023-04-05T00:15:26;12.70;;;8.57;;
13872;SDS011;7006;51.494;11.964;2023-04-05T00:17:55;8.73;;;7.00;;
13872;SDS011;7006;51.494;11.964;2023-04-05T00:20:24;9.00;;;7.23;;
13872;SDS011;7006;51.494;11.964;2023-04-05T00:22:53;10.73;;;7.57;;
13872;SDS011;7006;51.494;11.964;2023-04-05T00:25:21;13.37;;;9.50;;
13872;SDS011;7006;51.494;11.964;2023-04-05T00:27:51;17.70;;;10.70;;
13872;SDS011;7006;51.494;11.964;2023-04-05T00:30:26;17.40;;;11.87;;
13872;SDS011;7006;51.494;11.964;2023-04-05T00:32:54;11.00;;;8.57;;
13872;SDS011;7006;51.494;11.964;2023-04-05T00:35:25;10.97;;;8.10;;
13872;SDS011;7006;51.494;11.964;2023-04-05T00:37:54;11.30;;;8.07;;
13872;SDS011;7006;51.494;11.964;2023-04-05T00:40:22;11.17;;;8.43;;
13872;SDS011;7006;51.494;11.964;2023-04-05T00:42:50;12.53;;;8.07;;
13872;SDS011;7006;51.494;11.964;2023-04-05T00:45:19;11.63;;;7.63;;
13872;SDS011;7006;51.494;11.964;2023-04-05T00:47:49;11.70;;;8.20;;
13872;SDS011;7006;51.494;11.964;2023-04-05T00:50:20;11.80;;;7.77;;
13872;SDS011;7006;51.494;11.964;2023-04-05T00:52:49;8.90;;;8.00;;
13872;SDS011;7006;51.494;11.964;2023-04-05T00:55:17;14.27;;;8.20;;
13872;SDS011;7006;51.494;11.964;2023-04-05T00:57:46;8.90;;;7.20;;
13872;SDS011;7006;51.494;11.964;2023-04-05T01:00:14;12.30;;;7.80;;
13872;SDS011;7006;51.494;11.964;2023-04-05T01:02:45;11.17;;;8.40;;
13872;SDS011;7006;51.494;11.964;2023-04-05T01:05:20;15.37;;;9.80;;
13872;SDS011;7006;51.494;11.964;2023-04-05T01:07:55;22.10;;;13.00;;
13872;SDS011;7006;51.494;11.964;2023-04-05T01:10:26;23.80;;;16.13;;
13872;SDS011;7006;51.494;11.964;2023-04-05T01:12:58;24.57;;;15.70;;
13872;SDS011;7006;51.494;11.964;2023-04-05T01:15:26;19.50;;;13.10;;
13872;SDS011;7006;51.494;11.964;2023-04-05T01:17:54;15.67;;;10.47;;
13872;SDS011;7006;51.494;11.964;2023-04-05T01:20:29;14.60;;;9.30;;
13872;SDS011;7006;51.494;11.964;2023-04-05T01:23:07;18.03;;;9.33;;
13872;SDS011;7006;51.494;11.964;2023-04-05T01:25:55;11.73;;;8.90;;
13872;SDS011;7006;51.494;11.964;2023-04-05T01:31:25;11.30;;;8.67;;
13872;SDS011;7006;51.494;11.964;2023-04-05T01:33:57;13.30;;;9.50;;
13872;SDS011;7006;51.494;11.964;2023-04-05T01:36:28;14.03;;;9.70;;
13872;SDS011;7006;51.494;11.964;2023-04-05T01:38:58;14.47;;;9.50;;
13872;SDS011;7006;51.494;11.964;2023-04-05T01:41:29;12.30;;;10.23;;
13872;SDS011;7006;51.494;11.964;2023-04-05T01:43:57;11.60;;;9.33;;
13872;SDS011;7006;51.494;11.964;2023-04-05T01:46:28;13.50;;;9.00;;
13872;SDS011;7006;51.494;11.964;2023-04-05T01:48:56;11.57;;;8.60;;
13872;SDS011;7006;51.494;11.964;2023-04-05T01:51:24;15.33;;;10.57;;
13872;SDS011;7006;51.494;11.964;2023-04-05T01:53:52;12.37;;;9.23;;
13872;SDS011;7006;51.494;11.964;2023-04-05T01:56:20;9.63;;;8.40;;
13872;SDS011;7006;51.494;11.964;2023-04-05T01:58:49;12.73;;;9.13;;
13872;SDS011;7006;51.494;11.964;2023-04-05T02:01:17;15.20;;;10.20;;
13872;SDS011;7006;51.494;11.964;2023-04-05T02:03:48;13.03;;;10.37;;
13872;SDS011;7006;51.494;11.964;2023-04-05T02:06:16;11.10;;;8.70;;
13872;SDS011;7006;51.494;11.964;2023-04-05T02:08:44;13.23;;;9.50;;
13872;SDS011;7006;51.494;11.964;2023-04-05T02:11:12;12.93;;;8.90;;
13872;SDS011;7006;51.494;11.964;2023-04-05T02:13:40;14.30;;;9.07;;
13872;SDS011;7006;51.494;11.964;2023-04-05T02:16:08;12.70;;;9.33;;
13872;SDS011;7006;51.494;11.964;2023-04-05T02:18:36;11.57;;;8.70;;
13872;SDS011;7006;51.494;11.964;2023-04-05T02:21:08;12.40;;;8.83;;
13872;SDS011;7006;51.494;11.964;2023-04-05T02:23:36;12.07;;;8.60;;
13872;SDS011;7006;51.494;11.964;2023-04-05T02:26:04;14.57;;;9.17;;
13872;SDS011;7006;51.494;11.964;2023-04-05T02:28:32;12.40;;;8.50;;
13872;SDS011;7006;51.494;11.964;2023-04-05T02:31:01;11.33;;;8.03;;
13872;SDS011;7006;51.494;11.964;2023-04-05T02:33:29;10.50;;;8.20;;
13872;SDS011;7006;51.494;11.964;2023-04-05T02:35:57;9.83;;;8.07;;
13872;SDS011;7006;51.494;11.964;2023-04-05T02:38:28;12.00;;;8.33;;
13872;SDS011;7006;51.494;11.964;2023-04-05T02:40:56;13.07;;;8.90;;
13872;SDS011;7006;51.494;11.964;2023-04-05T02:43:25;9.87;;;7.83;;
13872;SDS011;7006;51.494;11.964;2023-04-05T02:45:53;16.03;;;9.70;;
13872;SDS011;7006;51.494;11.964;2023-04-05T02:48:21;14.10;;;8.83;;
13872;SDS011;7006;51.494;11.964;2023-04-05T02:50:50;10.53;;;8.33;;
13872;SDS011;7006;51.494;11.964;2023-04-05T02:53:19;13.30;;;7.73;;
13872;SDS011;7006;51.494;11.964;2023-04-05T02:55:53;10.63;;;8.00;;
13872;SDS011;7006;51.494;11.964;2023-04-05T02:58:22;12.07;;;8.03;;
13872;SDS011;7006;51.494;11.964;2023-04-05T03:00:50;12.93;;;7.97;;
13872;SDS011;7006;51.494;11.964;2023-04-05T03:03:19;10.50;;;7.63;;
13872;SDS011;7006;51.494;11.964;2023-04-05T03:05:47;10.00;;;7.63;;
13872;SDS011;7006;51.494;11.964;2023-04-05T03:08:16;9.33;;;7.37;;
13872;SDS011;7006;51.494;11.964;2023-04-05T03:10:49;9.50;;;7.07;;
13872;SDS011;7006;51.494;11.964;2023-04-05T03:13:20;12.13;;;7.40;;
13872;SDS011;7006;51.494;11.964;2023-04-05T03:15:52;9.87;;;7.33;;
13872;SDS011;7006;51.494;11.964;2023-04-05T03:18:20;8.73;;;6.70;;
13872;SDS011;7006;51.494;11.964;2023-04-05T03:20:49;8.30;;;6.70;;
13872;SDS011;7006;51.494;11.964;2023-04-05T03:23:20;12.70;;;7.03;;
13872;SDS011;7006;51.494;11.964;2023-04-05T03:25:52;9.57;;;7.20;;
13872;SDS011;7006;51.494;11.964;2023-04-05T03:28:23;18.80;;;11.87;;
13872;SDS011;7006;51.494;11.964;2023-04-05T03:30:51;11.23;;;7.77;;
13872;SDS011;7006;51.494;11.964;2023-04-05T03:33:20;10.17;;;7.93;;
13872;SDS011;7006;51.494;11.964;2023-04-05T03:35:48;9.03;;;6.63;;
13872;SDS011;7006;51.494;11.964;2023-04-05T03:38:17;10.00;;;7.30;;
13872;SDS011;7006;51.494;11.964;2023-04-05T03:40:45;11.70;;;7.43;;
13872;SDS011;7006;51.494;11.964;2023-04-05T03:43:13;12.00;;;7.87;;
13872;SDS011;7006;51.494;11.964;2023-04-05T03:45:44;9.80;;;7.30;;
13872;SDS011;7006;51.494;11.964;2023-04-05T03:48:12;9.10;;;6.20;;
13872;SDS011;7006;51.494;11.964;2023-04-05T03:50:44;9.17;;;6.77;;
13872;SDS011;7006;51.494;11.964;2023-04-05T03:53:12;9.33;;;6.67;;
13872;SDS011;7006;51.494;11.964;2023-04-05T03:55:41;8.73;;;6.63;;
13872;SDS011;7006;51.494;11.964;2023-04-05T03:58:14;9.77;;;7.10;;
13872;SDS011;7006;51.494;11.964;2023-04-05T04:00:45;9.67;;;7.20;;
13872;SDS011;7006;51.494;11.964;2023-04-05T04:03:14;9.83;;;7.10;;
13872;SDS011;7006;51.494;11.964;2023-04-05T04:05:42;10.57;;;6.27;;
13872;SDS011;7006;51.494;11.964;2023-04-05T04:08:11;11.20;;;6.77;;
13872;SDS011;7006;51.494;11.964;2023-04-05T04:10:39;8.40;;;7.00;;
13872;SDS011;7006;51.494;11.964;2023-04-05T04:13:07;9.30;;;6.60;;
13872;SDS011;7006;51.494;11.964;2023-04-05T04:15:35;11.07;;;7.37;;
13872;SDS011;7006;51.494;11.964;2023-04-05T04:18:06;8.90;;;6.70;;
13872;SDS011;7006;51.494;11.964;2023-04-05T04:20:34;10.73;;;7.27;;
13872;SDS011;7006;51.494;11.964;2023-04-05T04:23:03;9.10;;;6.80;;
13872;SDS011;7006;51.494;11.964;2023-04-05T04:25:34;10.77;;;6.70;;
13872;SDS011;7006;51.494;11.964;2023-04-05T04:28:02;11.97;;;7.47;;
13872;SDS011;7006;51.494;11.964;2023-04-05T04:30:31;10.77;;;8.43;;
13872;SDS011;7006;51.494;11.964;2023-04-05T04:33:00;9.63;;;6.83;;
13872;SDS011;7006;51.494;11.964;2023-04-05T04:35:31;9.03;;;7.23;;
13872;SDS011;7006;51.494;11.964;2023-04-05T04:38:03;10.27;;;7.23;;
13872;SDS011;7006;51.494;11.964;2023-04-05T04:40:33;11.90;;;7.43;;
13872;SDS011;7006;51.494;11.964;2023-04-05T04:43:02;10.60;;;7.50;;
13872;SDS011;7006;51.494;11.964;2023-04-05T04:45:31;9.47;;;7.20;;
13872;SDS011;7006;51.494;11.964;2023-04-05T04:48:02;11.13;;;7.30;;
13872;SDS011;7006;51.494;11.964;2023-04-05T04:50:33;9.97;;;7.27;;
13872;SDS011;7006;51.494;11.964;2023-04-05T04:53:01;11.27;;;7.83;;
13872;SDS011;7006;51.494;11.964;2023-04-05T04:55:30;10.43;;;7.50;;
13872;SDS011;7006;51.494;11.964;2023-04-05T04:58:00;14.03;;;8.30;;
13872;SDS011;7006;51.494;11.964;2023-04-05T05:00:33;11.33;;;7.93;;
13872;SDS011;7006;51.494;11.964;2023-04-05T05:03:09;8.83;;;6.90;;
13872;SDS011;7006;51.494;11.964;2023-04-05T05:05:43;14.00;;;7.40;;
13872;SDS011;7006;51.494;11.964;2023-04-05T05:08:12;9.67;;;7.00;;
13872;SDS011;7006;51.494;11.964;2023-04-05T05:10:40;10.70;;;7.50;;
13872;SDS011;7006;51.494;11.964;2023-04-05T05:13:09;9.90;;;7.67;;
13872;SDS011;7006;51.494;11.964;2023-04-05T05:15:38;9.53;;;7.63;;
13872;SDS011;7006;51.494;11.964;2023-04-05T05:18:06;14.57;;;7.77;;
13872;SDS011;7006;51.494;11.964;2023-04-05T05:20:34;10.73;;;7.27;;
13872;SDS011;7006;51.494;11.964;2023-04-05T05:23:05;12.80;;;7.60;;
13872;SDS011;7006;51.494;11.964;2023-04-05T05:25:33;11.90;;;7.80;;
13872;SDS011;7006;51.494;11.964;2023-04-05T05:28:02;11.00;;;7.60;;
13872;SDS011;7006;51.494;11.964;2023-04-05T05:30:30;9.87;;;7.67;;
13872;SDS011;7006;51.494;11.964;2023-04-05T05:32:58;13.53;;;6.77;;
13872;SDS011;7006;51.494;11.964;2023-04-05T05:35:26;14.90;;;7.53;;
13872;SDS011;7006;51.494;11.964;2023-04-05T05:37:55;8.83;;;7.03;;
13872;SDS011;7006;51.494;11.964;2023-04-05T05:40:25;11.13;;;7.67;;
13872;SDS011;7006;51.494;11.964;2023-04-05T05:42:54;10.40;;;7.77;;
13872;SDS011;7006;51.494;11.964;2023-04-05T05:45:22;10.47;;;7.20;;
13872;SDS011;7006;51.494;11.964;2023-04-05T05:47:51;10.57;;;7.40;;
13872;SDS011;7006;51.494;11.964;2023-04-05T05:50:20;10.13;;;7.40;;
13872;SDS011;7006;51.494;11.964;2023-04-05T05:52:48;10.00;;;7.50;;
13872;SDS011;7006;51.494;11.964;2023-04-05T05:55:16;11.33;;;7.63;;
13872;SDS011;7006;51.494;11.964;2023-04-05T05:57:47;15.20;;;7.40;;
13872;SDS011;7006;51.494;11.964;2023-04-05T06:00:17;11.33;;;7.90;;
13872;SDS011;7006;51.494;11.964;2023-04-05T06:02:45;10.00;;;7.47;;
13872;SDS011;7006;51.494;11.964;2023-04-05T06:05:14;11.27;;;8.23;;
13872;SDS011;7006;51.494;11.964;2023-04-05T06:07:42;12.03;;;7.40;;
13872;SDS011;7006;51.494;11.964;2023-04-05T06:10:10;10.67;;;7.60;;
13872;SDS011;7006;51.494;11.964;2023-04-05T06:12:39;12.67;;;9.13;;
13872;SDS011;7006;51.494;11.964;2023-04-05T06:15:10;10.20;;;7.43;;
13872;SDS011;7006;51.494;11.964;2023-04-05T06:17:38;11.90;;;8.23;;
13872;SDS011;7006;51.494;11.964;2023-04-05T06:20:07;8.90;;;7.30;;
13872;SDS011;7006;51.494;11.964;2023-04-05T06:22:36;10.30;;;7.50;;
13872;SDS011;7006;51.494;11.964;2023-04-05T06:25:05;14.77;;;8.57;;
13872;SDS011;7006;51.494;11.964;2023-04-05T06:27:34;9.03;;;7.00;;
13872;SDS011;7006;51.494;11.964;2023-04-05T06:30:02;9.87;;;7.30;;
13872;SDS011;7006;51.494;11.964;2023-04-05T06:32:33;11.60;;;7.40;;
13872;SDS011;7006;51.494;11.964;2023-04-05T06:35:02;12.00;;;9.20;;
13872;SDS011;7006;51.494;11.964;2023-04-05T06:37:30;12.07;;;7.90;;
13872;SDS011;7006;51.494;11.964;2023-04-05T06:39:58;12.77;;;9.30;;
13872;SDS011;7006;51.494;11.964;2023-04-05T06:42:26;13.43;;;9.23;;
13872;SDS011;7006;51.494;11.964;2023-04-05T06:44:55;13.00;;;8.40;;
13872;SDS011;7006;51.494;11.964;2023-04-05T06:47:23;17.53;;;8.37;;
13872;SDS011;7006;51.494;11.964;2023-04-05T06:49:54;11.77;;;8.50;;
13872;SDS011;7006;51.494;11.964;2023-04-05T06:52:22;14.83;;;9.70;;
13872;SDS011;7006;51.494;11.964;2023-04-05T06:54:50;14.70;;;8.47;;
13872;SDS011;7006;51.494;11.964;2023-04-05T06:57:19;15.17;;;8.53;;
13872;SDS011;7006;51.494;11.964;2023-04-05T06:59:47;11.20;;;8.83;;
13872;SDS011;7006;51.494;11.964;2023-04-05T07:02:15;10.43;;;8.40;;
13872;SDS011;7006;51.494;11.964;2023-04-05T07:04:43;16.50;;;10.20;;
13872;SDS011;7006;51.494;11.964;2023-04-05T07:07:15;11.50;;;9.00;;
13872;SDS011;7006;51.494;11.964;2023-04-05T07:09:43;20.07;;;10.73;;
13872;SDS011;7006;51.494;11.964;2023-04-05T07:12:11;12.50;;;6.93;;
13872;SDS011;7006;51.494;11.964;2023-04-05T07:14:39;10.10;;;7.10;;
13872;SDS011;7006;51.494;11.964;2023-04-05T07:17:07;7.97;;;6.70;;
13872;SDS011;7006;51.494;11.964;2023-04-05T07:19:36;9.03;;;7.03;;
13872;SDS011;7006;51.494;11.964;2023-04-05T07:22:04;12.73;;;7.27;;
13872;SDS011;7006;51.494;11.964;2023-04-05T07:24:35;9.83;;;7.40;;
13872;SDS011;7006;51.494;11.964;2023-04-05T07:27:03;10.10;;;7.60;;
13872;SDS011;7006;51.494;11.964;2023-04-05T07:29:32;9.93;;;7.53;;
13872;SDS011;7006;51.494;11.964;2023-04-05T07:32:04;9.80;;;6.63;;
13872;SDS011;7006;51.494;11.964;2023-04-05T07:34:33;11.47;;;7.10;;
13872;SDS011;7006;51.494;11.964;2023-04-05T07:37:03;14.03;;;9.30;;
13872;SDS011;7006;51.494;11.964;2023-04-05T07:39:35;11.90;;;8.20;;
13872;SDS011;7006;51.494;11.964;2023-04-05T07:42:03;8.97;;;6.73;;
13872;SDS011;7006;51.494;11.964;2023-04-05T07:44:32;10.30;;;6.40;;
13872;SDS011;7006;51.494;11.964;2023-04-05T07:47:00;9.53;;;7.03;;
13872;SDS011;7006;51.494;11.964;2023-04-05T07:49:28;9.40;;;6.20;;
13872;SDS011;7006;51.494;11.964;2023-04-05T07:51:58;7.90;;;5.70;;
13872;SDS011;7006;51.494;11.964;2023-04-05T07:54:26;8.40;;;5.43;;
13872;SDS011;7006;51.494;11.964;2023-04-05T07:56:58;8.97;;;6.00;;
13872;SDS011;7006;51.494;11.964;2023-04-05T07:59:26;7.80;;;5.93;;
13872;SDS011;7006;51.494;11.964;2023-04-05T08:01:55;8.00;;;5.80;;
13872;SDS011;7006;51.494;11.964;2023-04-05T08:04:23;7.00;;;5.53;;
13872;SDS011;7006;51.494;11.964;2023-04-05T08:06:53;8.87;;;6.20;;
13872;SDS011;7006;51.494;11.964;2023-04-05T08:09:21;9.00;;;5.70;;
13872;SDS011;7006;51.494;11.964;2023-04-05T08:11:49;8.43;;;5.47;;
13872;SDS011;7006;51.494;11.964;2023-04-05T08:14:20;6.13;;;4.70;;
13872;SDS011;7006;51.494;11.964;2023-04-05T08:16:48;7.53;;;5.13;;
13872;SDS011;7006;51.494;11.964;2023-04-05T08:19:17;7.33;;;5.10;;
13872;SDS011;7006;51.494;11.964;2023-04-05T08:21:45;7.20;;;5.07;;
13872;SDS011;7006;51.494;11.964;2023-04-05T08:24:13;8.67;;;4.83;;
13872;SDS011;7006;51.494;11.964;2023-04-05T08:26:41;7.77;;;4.87;;
13872;SDS011;7006;51.494;11.964;2023-04-05T08:29:09;6.10;;;4.00;;
13872;SDS011;7006;51.494;11.964;2023-04-05T08:31:40;9.17;;;4.30;;
13872;SDS011;7006;51.494;11.964;2023-04-05T08:34:08;9.00;;;5.67;;
13872;SDS011;7006;51.494;11.964;2023-04-05T08:36:36;8.10;;;4.00;;
13872;SDS011;7006;51.494;11.964;2023-04-05T08:39:04;5.33;;;3.27;;
13872;SDS011;7006;51.494;11.964;2023-04-05T08:41:34;6.97;;;3.40;;
13872;SDS011;7006;51.494;11.964;2023-04-05T08:44:02;6.30;;;3.60;;
13872;SDS011;7006;51.494;11.964;2023-04-05T08:46:31;4.17;;;3.33;;
13872;SDS011;7006;51.494;11.964;2023-04-05T08:49:05;7.20;;;3.50;;
13872;SDS011;7006;51.494;11.964;2023-04-05T08:51:36;5.50;;;3.70;;
13872;SDS011;7006;51.494;11.964;2023-04-05T08:54:04;5.93;;;3.07;;
13872;SDS011;7006;51.494;11.964;2023-04-05T08:56:33;5.67;;;3.10;;
13872;SDS011;7006;51.494;11.964;2023-04-05T08:59:02;5.53;;;3.00;;
13872;SDS011;7006;51.494;11.964;2023-04-05T09:01:46;4.83;;;3.07;;
13872;SDS011;7006;51.494;11.964;2023-04-05T09:04:17;4.97;;;3.23;;
13872;SDS011;7006;51.494;11.964;2023-04-05T09:06:45;4.00;;;2.40;;
13872;SDS011;7006;51.494;11.964;2023-04-05T09:09:14;4.17;;;3.00;;
13872;SDS011;7006;51.494;11.964;2023-04-05T09:11:43;5.97;;;2.97;;
13872;SDS011;7006;51.494;11.964;2023-04-05T09:14:11;4.67;;;3.27;;
13872;SDS011;7006;51.494;11.964;2023-04-05T09:16:40;6.10;;;2.50;;
13872;SDS011;7006;51.494;11.964;2023-04-05T09:19:10;3.97;;;2.73;;
13872;SDS011;7006;51.494;11.964;2023-04-05T09:24:28;4.50;;;3.20;;
13872;SDS011;7006;51.494;11.964;2023-04-05T09:27:02;5.80;;;3.00;;
13872;SDS011;7006;51.494;11.964;2023-04-05T09:29:30;5.00;;;2.93;;
13872;SDS011;7006;51.494;11.964;2023-04-05T09:31:59;5.77;;;3.17;;
13872;SDS011;7006;51.494;11.964;2023-04-05T09:34:31;4.80;;;3.33;;
13872;SDS011;7006;51.494;11.964;2023-04-05T09:37:01;5.00;;;3.30;;
13872;SDS011;7006;51.494;11.964;2023-04-05T09:39:30;4.90;;;3.10;;
13872;SDS011;7006;51.494;11.964;2023-04-05T09:42:03;5.47;;;3.50;;
13872;SDS011;7006;51.494;11.964;2023-04-05T09:47:15;6.10;;;3.30;;
13872;SDS011;7006;51.494;11.964;2023-04-05T09:49:46;5.07;;;3.67;;
13872;SDS011;7006;51.494;11.964;2023-04-05T09:52:18;4.50;;;3.37;;
13872;SDS011;7006;51.494;11.964;2023-04-05T09:54:46;4.30;;;3.30;;
13872;SDS011;7006;51.494;11.964;2023-04-05T09:57:15;6.03;;;3.43;;
13872;SDS011;7006;51.494;11.964;2023-04-05T09:59:44;5.63;;;3.03;;
13872;SDS011;7006;51.494;11.964;2023-04-05T10:02:12;5.60;;;3.53;;
13872;SDS011;7006;51.494;11.964;2023-04-05T10:04:41;5.00;;;3.30;;
13872;SDS011;7006;51.494;11.964;2023-04-05T10:07:12;4.53;;;2.90;;
13872;SDS011;7006;51.494;11.964;2023-04-05T10:09:41;5.50;;;3.43;;
13872;SDS011;7006;51.494;11.964;2023-04-05T10:12:11;5.10;;;3.10;;
13872;SDS011;7006;51.494;11.964;2023-04-05T10:14:39;4.33;;;3.10;;
13872;SDS011;7006;51.494;11.964;2023-04-05T10:17:08;5.47;;;3.13;;
13872;SDS011;7006;51.494;11.964;2023-04-05T10:19:49;4.03;;;2.90;;
13872;SDS011;7006;51.494;11.964;2023-04-05T10:22:25;6.30;;;3.30;;
13872;SDS011;7006;51.494;11.964;2023-04-05T10:24:57;7.13;;;2.67;;
13872;SDS011;7006;51.494;11.964;2023-04-05T10:27:29;4.77;;;3.10;;
13872;SDS011;7006;51.494;11.964;2023-04-05T10:30:02;4.10;;;2.97;;
13872;SDS011;7006;51.494;11.964;2023-04-05T10:32:34;4.10;;;3.03;;
13872;SDS011;7006;51.494;11.964;2023-04-05T10:35:06;4.77;;;2.70;;
13872;SDS011;7006;51.494;11.964;2023-04-05T10:37:40;3.93;;;2.50;;
13872;SDS011;7006;51.494;11.964;2023-04-05T10:40:10;3.70;;;2.53;;
13872;SDS011;7006;51.494;11.964;2023-04-05T10:42:39;7.60;;;3.10;;
13872;SDS011;7006;51.494;11.964;2023-04-05T10:45:09;5.10;;;2.83;;
13872;SDS011;7006;51.494;11.964;2023-04-05T10:47:41;4.80;;;3.03;;
13872;SDS011;7006;51.494;11.964;2023-04-05T10:50:13;4.53;;;3.30;;
13872;SDS011;7006;51.494;11.964;2023-04-05T10:52:46;10.53;;;3.10;;
13872;SDS011;7006;51.494;11.964;2023-04-05T10:55:15;6.13;;;3.40;;
13872;SDS011;7006;51.494;11.964;2023-04-05T10:57:44;5.30;;;3.50;;
13872;SDS011;7006;51.494;11.964;2023-04-05T11:00:13;5.70;;;3.40;;
13872;SDS011;7006;51.494;11.964;2023-04-05T11:02:42;4.63;;;3.20;;
13872;SDS011;7006;51.494;11.964;2023-04-05T11:07:58;4.53;;;3.10;;
13872;SDS011;7006;51.494;11.964;2023-04-05T11:10:27;4.20;;;3.00;;
13872;SDS011;7006;51.494;11.964;2023-04-05T11:13:02;5.87;;;3.20;;
13872;SDS011;7006;51.494;11.964;2023-04-05T11:15:31;5.70;;;3.47;;
13872;SDS011;7006;51.494;11.964;2023-04-05T11:18:00;5.37;;;3.50;;
13872;SDS011;7006;51.494;11.964;2023-04-05T11:20:38;5.23;;;3.37;;
13872;SDS011;7006;51.494;11.964;2023-04-05T11:23:09;6.17;;;4.03;;
13872;SDS011;7006;51.494;11.964;2023-04-05T11:25:38;20.10;;;3.60;;
13872;SDS011;7006;51.494;11.964;2023-04-05T11:28:07;7.43;;;2.93;;
13872;SDS011;7006;51.494;11.964;2023-04-05T11:30:45;4.23;;;2.77;;
13872;SDS011;7006;51.494;11.964;2023-04-05T11:35:59;4.40;;;3.40;;
13872;SDS011;7006;51.494;11.964;2023-04-05T11:38:30;7.10;;;2.97;;
13872;SDS011;7006;51.494;11.964;2023-04-05T11:41:04;4.60;;;2.90;;
13872;SDS011;7006;51.494;11.964;2023-04-05T11:43:34;6.50;;;4.70;;
13872;SDS011;7006;51.494;11.964;2023-04-05T11:46:06;11.53;;;6.63;;
13872;SDS011;7006;51.494;11.964;2023-04-05T11:48:34;8.20;;;4.30;;
13872;SDS011;7006;51.494;11.964;2023-04-05T11:51:05;6.33;;;4.20;;
13872;SDS011;7006;51.494;11.964;2023-04-05T11:53:37;17.63;;;11.60;;
13872;SDS011;7006;51.494;11.964;2023-04-05T11:56:06;6.43;;;4.23;;
13872;SDS011;7006;51.494;11.964;2023-04-05T11:58:37;6.17;;;4.13;;
13872;SDS011;7006;51.494;11.964;2023-04-05T12:01:06;4.67;;;3.20;;
13872;SDS011;7006;51.494;11.964;2023-04-05T12:03:38;7.70;;;4.87;;
13872;SDS011;7006;51.494;11.964;2023-04-05T12:06:06;7.20;;;4.30;;
13872;SDS011;7006;51.494;11.964;2023-04-05T12:08:41;4.57;;;3.30;;
13872;SDS011;7006;51.494;11.964;2023-04-05T12:11:14;5.10;;;3.03;;
13872;SDS011;7006;51.494;11.964;2023-04-05T12:13:44;5.40;;;3.27;;
13872;SDS011;7006;51.494;11.964;2023-04-05T12:16:12;4.57;;;2.80;;
13872;SDS011;7006;51.494;11.964;2023-04-05T12:18:40;14.27;;;8.93;;
13872;SDS011;7006;51.494;11.964;2023-04-05T12:21:09;9.37;;;6.57;;
13872;SDS011;7006;51.494;11.964;2023-04-05T12:23:37;5.93;;;3.70;;
13872;SDS011;7006;51.494;11.964;2023-04-05T12:26:08;4.23;;;2.93;;
13872;SDS011;7006;51.494;11.964;2023-04-05T12:28:48;5.37;;;3.37;;
13872;SDS011;7006;51.494;11.964;2023-04-05T12:34:00;4.80;;;2.93;;
13872;SDS011;7006;51.494;11.964;2023-04-05T12:36:29;5.93;;;3.33;;
13872;SDS011;7006;51.494;11.964;2023-04-05T12:38:58;6.37;;;3.43;;
13872;SDS011;7006;51.494;11.964;2023-04-05T12:41:29;7.80;;;3.33;;
13872;SDS011;7006;51.494;11.964;2023-04-05T12:43:58;4.27;;;2.87;;
13872;SDS011;7006;51.494;11.964;2023-04-05T12:46:38;10.60;;;6.00;;
13872;SDS011;7006;51.494;11.964;2023-04-05T12:49:09;5.07;;;3.93;;
13872;SDS011;7006;51.494;11.964;2023-04-05T12:51:40;5.87;;;4.17;;
13872;SDS011;7006;51.494;11.964;2023-04-05T12:54:10;5.60;;;3.33;;
13872;SDS011;7006;51.494;11.964;2023-04-05T12:56:41;4.70;;;3.33;;
13872;SDS011;7006;51.494;11.964;2023-04-05T12:59:09;4.00;;;3.00;;
13872;SDS011;7006;51.494;11.964;2023-04-05T13:01:37;5.07;;;3.40;;
13872;SDS011;7006;51.494;11.964;2023-04-05T13:04:05;14.33;;;7.43;;
13872;SDS011;7006;51.494;11.964;2023-04-05T13:06:34;5.00;;;3.47;;
13872;SDS011;7006;51.494;11.964;2023-04-05T13:09:02;6.27;;;3.63;;
13872;SDS011;7006;51.494;11.964;2023-04-05T13:11:30;10.63;;;3.37;;
13872;SDS011;7006;51.494;11.964;2023-04-05T13:14:01;4.97;;;3.63;;
13872;SDS011;7006;51.494;11.964;2023-04-05T13:16:29;3.93;;;3.33;;
13872;SDS011;7006;51.494;11.964;2023-04-05T13:18:57;5.40;;;3.60;;
13872;SDS011;7006;51.494;11.964;2023-04-05T13:21:25;5.80;;;3.10;;
13872;SDS011;7006;51.494;11.964;2023-04-05T13:23:53;5.70;;;3.30;;
13872;SDS011;7006;51.494;11.964;2023-04-05T13:26:22;7.07;;;3.90;;
13872;SDS011;7006;51.494;11.964;2023-04-05T13:28:50;5.40;;;3.53;;
13872;SDS011;7006;51.494;11.964;2023-04-05T13:31:21;6.70;;;3.43;;
13872;SDS011;7006;51.494;11.964;2023-04-05T13:33:49;7.80;;;4.47;;
13872;SDS011;7006;51.494;11.964;2023-04-05T13:36:17;8.83;;;6.67;;
13872;SDS011;7006;51.494;11.964;2023-04-05T13:38:45;5.17;;;3.03;;
13872;SDS011;7006;51.494;11.964;2023-04-05T13:41:14;5.37;;;3.50;;
13872;SDS011;7006;51.494;11.964;2023-04-05T13:43:42;6.43;;;3.90;;
13872;SDS011;7006;51.494;11.964;2023-04-05T13:46:10;6.47;;;3.80;;
13872;SDS011;7006;51.494;11.964;2023-04-05T13:48:41;5.60;;;3.90;;
13872;SDS011;7006;51.494;11.964;2023-04-05T13:51:09;4.77;;;3.37;;
13872;SDS011;7006;51.494;11.964;2023-04-05T13:53:37;4.63;;;3.40;;
13872;SDS011;7006;51.494;11.964;2023-04-05T13:56:06;7.27;;;4.40;;
13872;SDS011;7006;51.494;11.964;2023-04-05T13:58:34;6.90;;;4.57;;
13872;SDS011;7006;51.494;11.964;2023-04-05T14:01:02;5.20;;;3.67;;
13872;SDS011;7006;51.494;11.964;2023-04-05T14:03:30;6.27;;;3.73;;
13872;SDS011;7006;51.494;11.964;2023-04-05T14:06:01;6.47;;;3.90;;
13872;SDS011;7006;51.494;11.964;2023-04-05T14:08:29;4.53;;;3.37;;
13872;SDS011;7006;51.494;11.964;2023-04-05T14:10:59;7.43;;;3.30;;
13872;SDS011;7006;51.494;11.964;2023-04-05T14:13:27;4.60;;;3.57;;
13872;SDS011;7006;51.494;11.964;2023-04-05T14:15:55;5.53;;;4.00;;
13872;SDS011;7006;51.494;11.964;2023-04-05T14:18:24;5.17;;;3.90;;
13872;SDS011;7006;51.494;11.964;2023-04-05T14:20:52;6.23;;;4.30;;
13872;SDS011;7006;51.494;11.964;2023-04-05T14:23:23;4.97;;;3.67;;
13872;SDS011;7006;51.494;11.964;2023-04-05T14:25:51;5.50;;;4.10;;
13872;SDS011;7006;51.494;11.964;2023-04-05T14:28:20;5.37;;;3.87;;
13872;SDS011;7006;51.494;11.964;2023-04-05T14:30:48;6.20;;;4.17;;
13872;SDS011;7006;51.494;11.964;2023-04-05T14:33:16;8.97;;;5.20;;
13872;SDS011;7006;51.494;11.964;2023-04-05T14:35:45;12.70;;;7.77;;
13872;SDS011;7006;51.494;11.964;2023-04-05T14:38:13;4.97;;;4.40;;
13872;SDS011;7006;51.494;11.964;2023-04-05T14:40:44;18.10;;;11.63;;
13872;SDS011;7006;51.494;11.964;2023-04-05T14:43:12;8.20;;;5.10;;
13872;SDS011;7006;51.494;11.964;2023-04-05T14:45:40;6.10;;;5.13;;
13872;SDS011;7006;51.494;11.964;2023-04-05T14:48:09;7.17;;;5.07;;
13872;SDS011;7006;51.494;11.964;2023-04-05T14:50:37;9.00;;;5.27;;
13872;SDS011;7006;51.494;11.964;2023-04-05T14:53:05;7.17;;;4.87;;
13872;SDS011;7006;51.494;11.964;2023-04-05T14:55:34;6.20;;;4.50;;
13872;SDS011;7006;51.494;11.964;2023-04-05T14:58:05;6.70;;;4.30;;
13872;SDS011;7006;51.494;11.964;2023-04-05T15:00:33;6.03;;;4.80;;
13872;SDS011;7006;51.494;11.964;2023-04-05T15:03:01;7.30;;;5.17;;
13872;SDS011;7006;51.494;11.964;2023-04-05T15:05:30;6.47;;;5.00;;
13872;SDS011;7006;51.494;11.964;2023-04-05T15:07:58;6.53;;;4.43;;
13872;SDS011;7006;51.494;11.964;2023-04-05T15:10:26;7.50;;;4.57;;